• Join FlightAware (Why Join?)
  • Login
  • US Flag 
10:43AM EDT


 

Airport Tracker/Info


-or-


 

Live Flight TrackerFlight Track Log ✈ N978AC ✈ 18-Apr-2014 ✈ KVIS - KHII

Flight Track Log - Related Links

Times and Time Zones

All times are in EDT time to prevent confusion due to time zone crossing. See the N978AC flight status page for this flight to view local times or setup timezone preferences in your user account.

Time Position Orientation Groundspeed Altitude Reporting Facility
EDT Latitude Longitude Course Direction KTS MPH feet Rate Location/Type
07:25PM 36.3066 -119.3819 144° Southeast  Level FlightAware Approximate
07:26PM 36.2859 -119.3630 144° Southeast  Level FlightAware Approximate
07:27PM 36.2652 -119.3441 144° Southeast  Level FlightAware Approximate
07:28PM 36.2445 -119.3253 144° Southeast  Level FlightAware Approximate
07:29PM 36.2238 -119.3065 144° Southeast  Level FlightAware Approximate
07:30PM 36.1989 -119.2822 141° Southeast  Level FlightAware Approximate
07:31PM 36.1789 -119.2622 141° Southeast  Level FlightAware Approximate
07:32PM 36.1590 -119.2422 141° Southeast  Level FlightAware Approximate
07:33PM 36.1390 -119.2223 141° Southeast  Level FlightAware Approximate
07:34PM 36.1190 -119.2023 141° Southeast  Level FlightAware Approximate
07:34PM 35.8867 -119.0108 135° Southeast 84 97 8,900  Level Los Angeles Center
07:35PM 36.0988 -119.1833 180° South  Level FlightAware Approximate
07:35PM 35.8650 -119.0067 171° South 84 97 9,100  Level Los Angeles Center
07:36PM 36.0761 -119.1743 135° Southeast  Level FlightAware Approximate
07:36PM 35.8453 -118.9964 157° South 82 94 9,400  Level Los Angeles Center
07:37PM 36.0581 -119.1517 135° Southeast  Level FlightAware Approximate
07:37PM 35.8247 -118.9894 165° South 79 91 9,500  Level Los Angeles Center
07:38PM 36.0400 -119.1292 135° Southeast  Level FlightAware Approximate
07:38PM 35.7997 -118.9808 164° South 79 91 9,800  Level Los Angeles Center
07:39PM 36.0220 -119.1066 135° Southeast  Level FlightAware Approximate
07:39PM 35.7786 -118.9719 161° South 79 91 10,000  Level Los Angeles Center
07:40PM 35.7583 -118.9647 164° South 79 91 10,200 180 Climbing Los Angeles Center
07:41PM 35.7369 -118.9589 168° South 79 91 10,400 180 Climbing Los Angeles Center
07:42PM 35.7153 -118.9511 164° South 79 91 10,600 180 Climbing Los Angeles Center
07:43PM 35.6939 -118.9442 165° South 79 91 10,800 180 Climbing Los Angeles Center
07:44PM 35.6678 -118.9325 160° South 79 91 11,000 120 Climbing Los Angeles Center
07:45PM 35.6464 -118.9222 159° South 79 91 11,100 60 Climbing Los Angeles Center
07:46PM 35.6225 -118.9158 168° South 81 93 11,200  Climbing Los Angeles Center
07:48PM 35.5950 -118.9025 158° South 97 112 11,200  Level Los Angeles Center
07:49PM 35.5672 -118.8956 169° South 99 114 11,200 -60 Level Los Angeles Center
07:50PM 35.5389 -118.8875 167° South 105 121 11,100 -60 Descending Los Angeles Center
07:51PM 35.5061 -118.8797 169° South 103 119 11,100  Level Los Angeles Center
07:52PM 35.4808 -118.8658 156° South 103 119 11,200  Climbing Los Angeles Center
07:53PM 35.4561 -118.8508 154° Southeast 102 117 11,100  Descending Los Angeles Center
07:54PM 35.4286 -118.8419 165° South 101 116 11,200  Climbing Los Angeles Center
07:55PM 35.4014 -118.8347 168° South 101 116 11,200  Level Los Angeles Center
07:56PM 35.3694 -118.8222 162° South 101 116 11,200 -60 Level Los Angeles Center
07:57PM 35.3431 -118.8069 155° Southeast 101 116 11,100 -60 Descending Los Angeles Center
07:58PM 35.3164 -118.7983 165° South 101 116 11,100  Level Los Angeles Center
07:59PM 35.2886 -118.7897 166° South 101 116 11,100  Level Los Angeles Center
08:00PM 35.2611 -118.7803 164° South 101 116 11,100  Level Los Angeles Center
08:01PM 35.2333 -118.7711 165° South 102 117 11,100  Level Los Angeles Center
08:02PM 35.2003 -118.7572 161° South 102 117 11,100  Level Los Angeles Center
08:03PM 35.1747 -118.7422 154° Southeast 102 117 11,100  Level Los Angeles Center
08:04PM 35.1569 -118.7147 128° Southeast 102 117 11,100  Level Los Angeles Center
08:05PM 35.1350 -118.6906 138° Southeast 103 119 11,100  Level Los Angeles Center
08:06PM 35.1161 -118.6656 133° Southeast 103 119 11,100  Level Los Angeles Center
08:07PM 35.0975 -118.6381 130° Southeast 103 119 11,100  Level Los Angeles Center
08:08PM 35.0694 -118.6094 140° Southeast 106 122 11,100  Level Los Angeles Center
08:09PM 35.0494 -118.5842 134° Southeast 107 123 11,200  Climbing Los Angeles Center
08:10PM 35.0306 -118.5578 131° Southeast 105 121 11,200  Level Los Angeles Center
08:11PM 35.0336 -118.5242 84° East 102 117 11,200 -60 Level Los Angeles Center
08:12PM 35.0292 -118.4911 99° East 100 115 11,100 -60 Descending Los Angeles Center
08:13PM 35.0250 -118.4522 97° East 100 115 11,100  Level Los Angeles Center
08:14PM 35.0244 -118.4203 91° East 98 113 11,100  Level Los Angeles Center
08:16PM 35.0192 -118.3894 102° East 96 110 11,200  Climbing Los Angeles Center
08:17PM 35.0133 -118.3581 103° East 95 109 11,200 -60 Level Los Angeles Center
08:18PM 35.0094 -118.3242 98° East 99 114 11,100 -60 Descending Los Angeles Center
08:19PM 35.0028 -118.2828 101° East 104 120 11,100  Level Los Angeles Center
08:20PM 34.9994 -118.2533 98° East 94 108 11,200  Climbing Los Angeles Center
08:21PM 35.0019 -118.2183 85° East 100 115 11,200  Level Los Angeles Center
08:22PM 34.9975 -118.1847 99° East 100 115 11,200  Level Los Angeles Center
08:23PM 34.9914 -118.1497 102° East 101 116 11,200  Level Los Angeles Center
08:24PM 34.9906 -118.1172 92° East 101 116 11,200 -60 Level Los Angeles Center
08:25PM 34.9853 -118.0794 100° East 99 114 11,100 -60 Descending Los Angeles Center
08:26PM 34.9806 -118.0481 100° East 97 112 11,100  Level Los Angeles Center
08:27PM 34.9778 -118.0183 96° East 95 109 11,200  Climbing Los Angeles Center
08:28PM 34.9731 -117.9886 101° East 94 108 11,100 -60 Descending Los Angeles Center
08:29PM 34.9700 -117.9572 97° East 93 107 11,100  Level Los Angeles Center
08:30PM 34.9658 -117.9200 98° East 93 107 11,100  Level Los Angeles Center
08:31PM 34.9633 -117.8881 95° East 93 107 11,100  Level Los Angeles Center
08:32PM 34.9589 -117.8572 100° East 93 107 11,100  Level Los Angeles Center
08:33PM 34.9558 -117.8283 97° East 92 106 11,100  Level Los Angeles Center
08:34PM 34.9522 -117.7989 99° East 91 105 11,100  Level Los Angeles Center
08:35PM 34.9475 -117.7636 99° East 91 105 11,100  Level Los Angeles Center
08:36PM 34.9447 -117.7347 97° East 91 105 11,200  Climbing Los Angeles Center
08:37PM 34.9403 -117.7083 102° East 86 99 11,100  Descending Los Angeles Center
08:38PM 34.9367 -117.6789 99° East 86 99 11,200  Climbing Los Angeles Center
08:39PM 34.9317 -117.6458 100° East 92 106 11,100 -60 Descending Los Angeles Center
08:40PM 34.9283 -117.6056 96° East 96 110 11,100  Level Los Angeles Center
08:41PM 34.9261 -117.5711 94° East 98 113 11,100  Level Los Angeles Center
08:42PM 34.9211 -117.5381 100° East 98 113 11,100  Level Los Angeles Center
08:43PM 34.9178 -117.5039 97° East 98 113 11,100  Level Los Angeles Center
08:44PM 34.9156 -117.4692 94° East 100 115 11,200  Climbing Los Angeles Center
08:46PM 34.9114 -117.4264 97° East 103 119 11,100  Descending Los Angeles Center
08:47PM 34.9081 -117.3906 96° East 104 120 11,200  Climbing Los Angeles Center
08:48PM 34.9011 -117.3550 103° East 104 120 11,100 -60 Descending Los Angeles Center
08:49PM 34.8972 -117.3206 98° East 104 120 11,100  Level Los Angeles Center
08:50PM 34.8936 -117.2875 98° East 104 120 11,200  Climbing Los Angeles Center
08:51PM 34.8897 -117.2533 98° East 104 120 11,200  Level Los Angeles Center
08:52PM 34.8867 -117.2133 95° East 103 119 11,200  Level Los Angeles Center
08:53PM 34.8819 -117.1817 100° East 102 117 11,200  Level Los Angeles Center
08:54PM 34.8775 -117.1481 99° East 102 117 11,200  Level Los Angeles Center
08:55PM 34.8733 -117.1147 99° East 102 117 11,200  Level Los Angeles Center
08:56PM 34.8683 -117.0836 101° East 101 116 11,200 -60 Level Los Angeles Center
08:57PM 34.8644 -117.0456 97° East 99 114 11,100 -60 Descending Los Angeles Center
08:58PM 34.8608 -117.0158 98° East 94 108 11,100  Level Los Angeles Center
08:59PM 34.8569 -116.9858 99° East 94 108 11,200  Climbing Los Angeles Center
09:00PM 34.8558 -116.9550 93° East 92 106 11,200  Level Los Angeles Center
09:01PM 34.8508 -116.9250 101° East 92 106 11,200  Level Los Angeles Center
09:02PM 34.8458 -116.8961 102° East 92 106 11,200  Level Los Angeles Center
09:03PM 34.8436 -116.8586 94° East 92 106 11,200  Level Los Angeles Center
09:04PM 34.8414 -116.8289 95° East 92 106 11,200 -60 Level Los Angeles Center
09:05PM 34.8378 -116.7983 98° East 92 106 11,100  Descending Los Angeles Center
09:06PM 34.8322 -116.7700 103° East 91 105 11,200  Climbing Los Angeles Center
09:07PM 34.8281 -116.7406 100° East 90 104 11,200  Level Los Angeles Center
09:08PM 34.8275 -116.7089 91° East 91 105 11,200  Level Los Angeles Center
09:09PM 34.8222 -116.6681 99° East 98 113 11,200  Level Los Angeles Center
09:10PM 34.8178 -116.6350 99° East 98 113 11,200  Level Los Angeles Center
09:11PM 34.8133 -116.6033 100° East 98 113 11,200  Level Los Angeles Center
09:12PM 34.8103 -116.5717 97° East 98 113 11,200  Level Los Angeles Center
09:13PM 34.8061 -116.5386 99° East 98 113 11,200 -60 Level Los Angeles Center
09:14PM 34.8017 -116.5056 99° East 98 113 11,100  Descending Los Angeles Center
09:16PM 34.7981 -116.4692 97° East 97 112 11,200  Climbing Los Angeles Center
09:17PM 34.7950 -116.4386 97° East 95 109 11,100 -60 Descending Los Angeles Center
09:18PM 34.7956 -116.4078 89° East 94 108 11,100  Level Los Angeles Center
09:19PM 34.7978 -116.3767 85° East 94 108 11,100  Level Los Angeles Center
09:20PM 34.7972 -116.3439 91° East 94 108 11,100  Level Los Angeles Center
09:21PM 34.7964 -116.3064 92° East 94 108 11,200  Climbing Los Angeles Center
09:22PM 34.7956 -116.2733 92° East 94 108 11,100  Descending Los Angeles Center
09:23PM 34.7961 -116.2406 89° East 95 109 11,200  Climbing Los Angeles Center
09:24PM 34.7936 -116.2058 95° East 96 110 11,200 -60 Level Los Angeles Center
09:25PM 34.7917 -116.1728 94° East 96 110 11,100  Descending Los Angeles Center
09:26PM 34.7917 -116.1400 90° East 97 112 11,200  Climbing Los Angeles Center
09:27PM 34.7922 -116.0992 89° East 97 112 11,100  Descending Los Angeles Center
09:28PM 34.7900 -116.0647 94° East 98 113 11,200  Climbing Los Angeles Center
09:29PM 34.7878 -116.0325 95° East 98 113 11,100  Descending Los Angeles Center
09:30PM 34.7872 -115.9989 91° East 98 113 11,200  Climbing Los Angeles Center
09:31PM 34.7861 -115.9636 92° East 98 113 11,200  Level Los Angeles Center
09:32PM 34.7864 -115.9289 89° East 101 116 11,200 -60 Level Los Angeles Center
09:33PM 34.7903 -115.8944 82° East 101 116 11,100  Descending Los Angeles Center
09:34PM 34.7886 -115.8561 93° East 99 114 11,200  Climbing Los Angeles Center
09:35PM 34.7869 -115.8231 94° East 96 110 11,100 -60 Descending Los Angeles Center
09:36PM 34.7894 -115.7875 85° East 103 119 11,100  Level Los Angeles Center
09:37PM 34.7906 -115.7547 88° East 101 116 11,200  Climbing Los Angeles Center
09:38PM 34.7911 -115.7211 89° East 100 115 11,100 -60 Descending Los Angeles Center
09:39PM 34.7914 -115.6900 89° East 95 109 11,100  Level Los Angeles Center
09:40PM 34.7911 -115.6536 91° East 93 107 11,200  Climbing Los Angeles Center
09:41PM 34.7906 -115.6211 91° East 93 107 11,200  Level Los Angeles Center
09:42PM 34.7906 -115.5861 90° East 103 119 11,200  Level Los Angeles Center
09:43PM 34.7897 -115.5517 92° East 104 120 11,200  Level Los Angeles Center
09:44PM 34.7911 -115.5069 88° East 108 124 11,200 -60 Level Los Angeles Center
09:45PM 34.7889 -115.4703 94° East 109 125 11,100  Descending Los Angeles Center
09:46PM 34.7872 -115.4364 93° East 105 121 11,200  Climbing Los Angeles Center
09:48PM 34.7856 -115.4014 93° East 105 121 11,100 -540 Descending Los Angeles Center
09:49PM 34.7828 -115.3653 95° East 104 120 10,200 -900 Descending Los Angeles Center
09:50PM 34.7822 -115.3253 91° East 112 129 9,300 -960 Descending Los Angeles Center
09:51PM 34.7772 -115.2858 99° East 113 130 8,300 -540 Descending Los Angeles Center
09:52PM 34.7747 -115.2531 95° East 109 125 8,200 -60 Descending Los Angeles Center
09:53PM 34.7747 -115.2186 90° East 107 123 8,200  Level Los Angeles Center
09:54PM 34.7772 -115.1817 85° East 102 117 8,200  Level Los Angeles Center
09:55PM 34.7733 -115.1544 100° East 91 105 8,300  Climbing Los Angeles Center
09:56PM 34.7747 -115.1206 87° East 92 106 8,200  Descending Los Angeles Center
09:57PM 34.7769 -115.0925 84° East 89 102 8,300  Climbing Los Angeles Center
09:58PM 34.7769 -115.0617 90° East 88 101 8,200  Descending Los Angeles Center
09:59PM 34.7767 -115.0294 91° East 88 101 8,300  Climbing Los Angeles Center
10:00PM 34.7722 -114.9925 98° East 89 102 8,200 -60 Descending Los Angeles Center
10:01PM 34.7681 -114.9650 100° East 89 102 8,200  Level Los Angeles Center
10:02PM 34.7672 -114.9358 92° East 89 102 8,300  Climbing Los Angeles Center
10:03PM 34.7669 -114.9053 91° East 89 102 8,200 -120 Descending Los Angeles Center
10:04PM 34.7650 -114.8703 94° East 91 105 8,100 -360 Descending Los Angeles Center
10:05PM 34.7642 -114.8333 92° East 99 114 7,500 -480 Descending Los Angeles Center
10:06PM 34.7653 -114.7961 88° East 104 120 7,200 -180 Descending Los Angeles Center
10:07PM 34.7667 -114.7531 88° East 104 120 7,200 -60 Level Los Angeles Center
10:10PM 34.7658 -114.6458 96° East 88 101 7,100  Descending Los Angeles Center
10:11PM 34.7636 -114.6097 94° East 105 121 7,300  Climbing Los Angeles Center
10:12PM 34.7600 -114.5761 97° East 104 120 7,100 -240 Descending Los Angeles Center
10:16PM 34.7506 -114.4737 96° East  Level FlightAware Approximate